Time;durP1;ratioP1;P1;durP2;ratioP2;P2;SDS_P1;SDS_P2;PMS_P1;PMS_P2;Temp;Humidity;BMP_temperature;BMP_pressure;BME280_temperature;BME280_humidity;BME280_pressure;Samples;Min_cycle;Max_cycle;Signal;HPM_P1;HPM_P2
2022/08/18 00:01:13;;;;;;;3.15;2.95;;;25.00;71.20;;;;;;5055581;28;20299;-85
2022/08/18 00:03:44;;;;;;;3.63;3.35;;;25.00;72.30;;;;;;5056159;28;20285;-86
2022/08/18 00:06:27;;;;;;;9.35;3.60;;;25.00;72.00;;;;;;5056266;28;20210;-86
2022/08/18 00:08:58;;;;;;;3.95;3.65;;;24.90;72.20;;;;;;5055390;28;20233;-86
2022/08/18 00:11:27;;;;;;;4.43;3.38;;;24.90;72.30;;;;;;5055347;28;20230;-86
2022/08/18 00:14:12;;;;;;;4.32;3.90;;;24.90;72.80;;;;;;5055625;28;20217;-86
2022/08/18 00:16:52;;;;;;;3.63;3.33;;;24.90;72.80;;;;;;5055195;28;20236;-85
2022/08/18 00:19:21;;;;;;;3.40;3.10;;;24.80;72.90;;;;;;5055259;28;20210;-86
2022/08/18 00:22:12;;;;;;;3.95;3.65;;;24.80;73.30;;;;;;5055255;28;20232;-86
2022/08/18 00:24:45;;;;;;;3.83;3.53;;;24.80;72.80;;;;;;5053993;28;20292;-86
2022/08/18 00:27:18;;;;;;;4.35;3.55;;;24.80;72.50;;;;;;5055412;28;20209;-85
2022/08/18 00:29:51;;;;;;;4.85;3.40;;;24.80;72.20;;;;;;5055015;28;20288;-85
2022/08/18 00:32:21;;;;;;;3.97;3.67;;;24.70;72.10;;;;;;5054886;28;20298;-85
2022/08/18 00:34:50;;;;;;;4.65;3.40;;;24.70;72.40;;;;;;5054951;28;20220;-85
2022/08/18 00:37:18;;;;;;;3.53;3.15;;;24.70;72.00;;;;;;5054833;28;20304;-86
2022/08/18 00:39:47;;;;;;;4.00;3.35;;;24.70;72.10;;;;;;5054464;28;20292;-86
2022/08/18 00:42:18;;;;;;;3.58;3.28;;;24.70;72.00;;;;;;5054740;28;20222;-86
2022/08/18 00:45:04;;;;;;;3.90;3.60;;;24.70;72.60;;;;;;5054851;28;20202;-85
2022/08/18 00:47:32;;;;;;;15.93;3.90;;;24.60;72.70;;;;;;5054760;28;20205;-86
2022/08/18 00:50:14;;;;;;;4.18;3.67;;;24.60;73.80;;;;;;5054600;28;20212;-85
2022/08/18 00:52:49;;;;;;;4.70;4.30;;;24.50;72.50;;;;;;5054854;28;20304;-86
2022/08/18 00:55:19;;;;;;;5.15;3.85;;;24.50;72.80;;;;;;5054761;28;20231;-86
2022/08/18 00:57:53;;;;;;;4.05;3.58;;;24.50;73.00;;;;;;5054691;28;20232;-86
2022/08/18 01:00:23;;;;;;;3.45;3.15;;;24.50;73.40;;;;;;5054152;28;20293;-86
2022/08/18 01:02:56;;;;;;;3.90;3.58;;;24.50;73.80;;;;;;5054477;28;20264;-85
2022/08/18 01:05:31;;;;;;;3.88;3.47;;;24.50;74.00;;;;;;5054562;28;20301;-85
2022/08/18 01:07:59;;;;;;;2.55;2.35;;;24.50;73.60;;;;;;5054443;28;20280;-86
2022/08/18 01:10:27;;;;;;;4.10;3.70;;;24.40;74.60;;;;;;5054149;28;20227;-85
2022/08/18 01:12:58;;;;;;;6.38;4.20;;;24.40;74.10;;;;;;5054448;28;20209;-86
2022/08/18 01:15:28;;;;;;;3.05;2.85;;;24.40;74.40;;;;;;5054141;28;20220;-85
2022/08/18 01:23:54;;;;;;;4.72;3.72;;;24.30;74.00;;;;;;4992831;28;20238;-85
2022/08/18 01:26:24;;;;;;;4.35;3.95;;;24.30;74.00;;;;;;5040687;28;20256;-85
2022/08/18 01:28:53;;;;;;;6.78;3.75;;;24.20;74.10;;;;;;5053575;28;20240;-86
2022/08/18 01:31:36;;;;;;;4.22;3.78;;;24.20;74.70;;;;;;5053767;28;20248;-85
2022/08/18 01:34:06;;;;;;;3.65;3.35;;;24.20;75.20;;;;;;5054175;28;20209;-85
2022/08/18 01:36:37;;;;;;;3.58;3.28;;;24.20;75.50;;;;;;5053350;28;20289;-85
2022/08/18 01:39:09;;;;;;;3.60;3.30;;;24.20;76.00;;;;;;5052968;28;20224;-85
2022/08/18 01:41:39;;;;;;;3.45;3.13;;;24.10;76.00;;;;;;5053919;28;20226;-85
2022/08/18 01:44:10;;;;;;;4.63;3.97;;;24.10;76.00;;;;;;5053786;28;20284;-85
2022/08/18 01:46:41;;;;;;;3.85;3.40;;;24.10;76.50;;;;;;5053496;28;20261;-85
2022/08/18 01:49:12;;;;;;;5.72;3.20;;;24.10;75.70;;;;;;5053272;28;20251;-85
2022/08/18 01:51:41;;;;;;;5.28;3.63;;;24.10;76.60;;;;;;5053964;28;20232;-85
2022/08/18 01:54:14;;;;;;;4.43;3.90;;;24.00;76.50;;;;;;5053948;28;20213;-84
2022/08/18 01:56:43;;;;;;;4.80;4.07;;;24.00;76.30;;;;;;5053489;28;20284;-85
2022/08/18 01:59:13;;;;;;;10.95;4.20;;;24.00;76.60;;;;;;5052901;28;20229;-85
2022/08/18 02:01:44;;;;;;;4.45;3.78;;;24.00;77.60;;;;;;5053353;28;20249;-85
2022/08/18 02:04:18;;;;;;;3.72;3.42;;;24.00;76.90;;;;;;5053108;28;20205;-85
2022/08/18 02:07:07;;;;;;;3.97;3.58;;;23.90;77.10;;;;;;5053167;28;20233;-85
2022/08/18 02:09:39;;;;;;;4.20;3.78;;;23.90;78.00;;;;;;5053594;28;20208;-85
2022/08/18 02:12:08;;;;;;;4.40;3.90;;;23.90;78.10;;;;;;5052968;28;20233;-85
2022/08/18 02:14:37;;;;;;;3.72;3.42;;;23.90;77.70;;;;;;5053521;28;20205;-85
2022/08/18 02:17:08;;;;;;;3.70;3.40;;;23.80;77.60;;;;;;5053139;28;20201;-85
2022/08/18 02:19:39;;;;;;;3.58;3.22;;;23.80;77.70;;;;;;5052710;28;20248;-85
2022/08/18 02:22:09;;;;;;;4.60;4.18;;;23.80;77.90;;;;;;5052706;28;20289;-85
2022/08/18 02:24:39;;;;;;;4.90;3.35;;;23.80;78.10;;;;;;5053219;28;20259;-85
2022/08/18 02:27:09;;;;;;;3.67;3.30;;;23.80;77.90;;;;;;5053020;28;20205;-85
2022/08/18 02:29:37;;;;;;;6.20;3.60;;;23.80;78.00;;;;;;5053243;28;20209;-85
2022/08/18 02:32:07;;;;;;;3.60;3.38;;;23.80;78.30;;;;;;5053414;28;20241;-85
2022/08/18 02:34:35;;;;;;;3.67;3.40;;;23.70;78.30;;;;;;5056818;28;20202;-85
2022/08/18 02:37:04;;;;;;;3.88;3.58;;;23.70;78.40;;;;;;5055392;28;20216;-85
2022/08/18 02:39:34;;;;;;;3.67;3.10;;;23.70;78.90;;;;;;5052658;28;20229;-85
2022/08/18 02:42:05;;;;;;;4.15;3.75;;;23.70;78.80;;;;;;5053095;28;20228;-85
2022/08/18 02:44:34;;;;;;;3.28;3.08;;;23.60;79.00;;;;;;5052920;28;20217;-84
2022/08/18 02:47:03;;;;;;;3.80;3.38;;;23.60;79.50;;;;;;5051961;28;20284;-85
2022/08/18 02:49:31;;;;;;;4.47;4.07;;;23.60;79.40;;;;;;5052453;28;20197;-85
2022/08/18 02:52:00;;;;;;;4.20;3.80;;;23.60;79.60;;;;;;5052816;28;20222;-86
2022/08/18 02:54:28;;;;;;;3.28;3.08;;;23.60;79.50;;;;;;5052708;28;20297;-86
2022/08/18 02:56:57;;;;;;;4.05;3.50;;;23.60;79.80;;;;;;5052705;28;20269;-86
2022/08/18 02:59:27;;;;;;;4.10;3.50;;;23.60;80.20;;;;;;5051920;28;20222;-85
2022/08/18 03:02:00;;;;;;;3.58;3.28;;;23.50;80.40;;;;;;5052573;28;20240;-86
2022/08/18 03:04:30;;;;;;;4.80;3.42;;;23.50;80.30;;;;;;5052619;28;20385;-86
2022/08/18 03:07:06;;;;;;;4.43;3.78;;;23.50;80.70;;;;;;5052460;28;20202;-85
2022/08/18 03:09:36;;;;;;;3.90;3.50;;;23.50;80.80;;;;;;5052269;28;20210;-86
2022/08/18 03:12:06;;;;;;;4.05;3.15;;;23.40;80.80;;;;;;5052686;28;20317;-86
2022/08/18 03:14:37;;;;;;;5.15;3.97;;;23.40;80.70;;;;;;5052273;28;20305;-86
2022/08/18 03:17:07;;;;;;;6.65;3.92;;;23.40;80.90;;;;;;5052530;28;20233;-86
2022/08/18 03:19:36;;;;;;;5.45;4.95;;;23.40;80.70;;;;;;5052011;28;20312;-86
2022/08/18 03:22:07;;;;;;;3.75;3.20;;;23.40;80.90;;;;;;5052219;28;20253;-86
2022/08/18 03:24:55;;;;;;;4.20;3.72;;;23.40;80.50;;;;;;5052551;28;20212;-86
2022/08/18 03:27:24;;;;;;;6.28;3.75;;;23.40;81.50;;;;;;5052358;28;20209;-86
2022/08/18 03:29:54;;;;;;;4.57;3.97;;;23.40;81.30;;;;;;5052010;28;20277;-85
2022/08/18 03:32:22;;;;;;;4.40;4.00;;;23.40;80.20;;;;;;5052259;28;20244;-86
2022/08/18 03:34:50;;;;;;;4.18;3.83;;;23.30;80.40;;;;;;5051814;28;20266;-85
2022/08/18 03:37:19;;;;;;;3.92;3.63;;;23.30;81.00;;;;;;5052179;28;20245;-86
2022/08/18 03:39:50;;;;;;;4.97;4.47;;;23.20;82.00;;;;;;5051961;28;20228;-86
2022/08/18 03:42:19;;;;;;;3.85;3.55;;;23.20;82.00;;;;;;5052078;28;20293;-85
2022/08/18 03:44:47;;;;;;;3.40;3.08;;;23.20;82.00;;;;;;5052042;28;20224;-85
2022/08/18 03:47:16;;;;;;;3.83;3.53;;;23.20;82.00;;;;;;5051838;28;20244;-86
2022/08/18 03:49:45;;;;;;;4.90;3.83;;;23.10;82.10;;;;;;5051958;28;20289;-85
2022/08/18 03:52:14;;;;;;;3.90;3.60;;;23.20;81.70;;;;;;5052159;28;20268;-85
2022/08/18 03:54:42;;;;;;;4.28;3.88;;;23.20;82.20;;;;;;5052849;28;20232;-85
2022/08/18 03:57:12;;;;;;;3.83;3.58;;;23.20;81.50;;;;;;5052085;28;20210;-85
2022/08/18 03:59:42;;;;;;;4.25;3.95;;;23.10;81.20;;;;;;5053650;28;20313;-85
2022/08/18 04:02:11;;;;;;;3.78;3.55;;;23.10;81.60;;;;;;5055526;28;20221;-85
2022/08/18 04:04:40;;;;;;;5.10;4.35;;;23.10;82.40;;;;;;5055740;28;20206;-86
2022/08/18 04:07:15;;;;;;;3.83;3.53;;;23.10;82.20;;;;;;5055804;28;20229;-86
2022/08/18 04:09:44;;;;;;;6.30;4.35;;;23.10;82.30;;;;;;5055362;28;20197;-86
2022/08/18 04:12:15;;;;;;;3.92;3.63;;;23.20;81.90;;;;;;5055319;28;20313;-86
2022/08/18 04:14:48;;;;;;;4.03;3.63;;;23.20;82.00;;;;;;5055322;28;20236;-86
2022/08/18 04:17:23;;;;;;;4.38;4.00;;;23.20;82.00;;;;;;5055508;28;20267;-85
2022/08/18 04:19:53;;;;;;;4.05;3.67;;;23.20;82.20;;;;;;5055064;28;20221;-86
2022/08/18 04:22:22;;;;;;;3.55;3.25;;;23.20;82.10;;;;;;5055360;28;20229;-86
2022/08/18 04:24:51;;;;;;;3.58;3.38;;;23.20;82.60;;;;;;5055423;28;20243;-86
2022/08/18 04:27:20;;;;;;;5.88;4.00;;;23.20;83.60;;;;;;5054980;28;20219;-85
2022/08/18 04:29:49;;;;;;;4.25;3.85;;;23.20;82.20;;;;;;5054610;28;20284;-86
2022/08/18 04:32:18;;;;;;;4.32;3.75;;;23.30;83.20;;;;;;5054869;28;20233;-86
2022/08/18 04:34:46;;;;;;;4.88;4.35;;;23.30;82.90;;;;;;5055171;28;20202;-85
2022/08/18 04:37:16;;;;;;;4.05;3.70;;;23.30;83.10;;;;;;5055173;28;20297;-85
2022/08/18 04:39:45;;;;;;;5.15;4.50;;;23.30;83.50;;;;;;5054684;28;20317;-85
2022/08/18 04:42:13;;;;;;;4.63;4.22;;;23.30;84.50;;;;;;5054888;28;20236;-85
2022/08/18 04:44:42;;;;;;;3.75;3.45;;;23.40;85.00;;;;;;5055010;28;20216;-85
2022/08/18 04:47:11;;;;;;;4.45;4.10;;;23.40;84.50;;;;;;5055513;28;20289;-85
2022/08/18 04:49:43;;;;;;;4.85;4.22;;;23.50;85.10;;;;;;5054832;28;20205;-85
2022/08/18 04:55:10;;;;;;;4.82;4.43;;;23.50;86.70;;;;;;5054594;28;20220;-86
2022/08/18 04:57:41;;;;;;;7.07;4.22;;;23.60;86.30;;;;;;5054764;28;20249;-86
2022/08/18 05:00:11;;;;;;;4.55;4.15;;;23.60;86.60;;;;;;5054131;28;20248;-86
2022/08/18 05:02:40;;;;;;;5.45;4.70;;;23.70;86.80;;;;;;5054796;28;20285;-86
2022/08/18 05:05:09;;;;;;;4.82;4.43;;;23.80;86.90;;;;;;5054589;28;20288;-86
2022/08/18 05:07:44;;;;;;;4.43;4.05;;;23.80;87.30;;;;;;5054150;28;20206;-86
2022/08/18 05:10:16;;;;;;;4.47;4.07;;;23.80;86.80;;;;;;5054063;28;20209;-86
2022/08/18 05:12:47;;;;;;;4.55;4.13;;;23.80;86.40;;;;;;5054341;28;20225;-86
2022/08/18 05:15:16;;;;;;;6.50;4.47;;;23.80;86.40;;;;;;5054338;28;20217;-86
2022/08/18 05:17:45;;;;;;;4.43;4.05;;;23.80;86.40;;;;;;5054245;28;20206;-86
2022/08/18 05:20:17;;;;;;;4.47;4.07;;;23.90;86.20;;;;;;5053819;28;20221;-86
2022/08/18 05:22:46;;;;;;;5.43;4.35;;;23.90;86.20;;;;;;5054102;28;20210;-86
2022/08/18 05:25:16;;;;;;;6.65;4.38;;;23.90;86.00;;;;;;5054052;28;20298;-86
2022/08/18 05:27:44;;;;;;;5.72;4.95;;;23.90;86.00;;;;;;5054683;28;20240;-86
2022/08/18 05:30:14;;;;;;;5.05;4.55;;;23.90;86.40;;;;;;5054080;28;20237;-86
2022/08/18 05:32:44;;;;;;;5.38;4.78;;;23.90;87.00;;;;;;5053798;28;20230;-86
2022/08/18 05:35:21;;;;;;;4.78;4.25;;;24.00;86.50;;;;;;5054361;28;20214;-86
2022/08/18 05:38:07;;;;;;;5.43;4.22;;;24.10;86.90;;;;;;5053953;28;20240;-86
2022/08/18 05:40:38;;;;;;;5.97;4.40;;;24.10;87.00;;;;;;5053263;28;20241;-86
2022/08/18 05:43:08;;;;;;;4.63;4.18;;;24.10;87.10;;;;;;5053763;28;20213;-86
2022/08/18 05:45:37;;;;;;;4.38;4.07;;;24.00;87.40;;;;;;5053989;28;20292;-86
2022/08/18 05:48:05;;;;;;;3.97;3.67;;;24.00;87.60;;;;;;5053271;28;20261;-86
2022/08/18 05:50:37;;;;;;;4.88;4.38;;;24.10;87.40;;;;;;5053152;28;20229;-86
2022/08/18 05:53:09;;;;;;;4.00;3.58;;;24.10;87.50;;;;;;5053485;28;20202;-86
2022/08/18 05:58:40;;;;;;;4.57;3.80;;;24.20;87.50;;;;;;5053634;28;20281;-86
2022/08/18 06:01:14;;;;;;;4.03;3.70;;;24.30;87.60;;;;;;5053144;28;20317;-86
2022/08/18 06:03:47;;;;;;;5.25;4.75;;;24.30;87.20;;;;;;5053262;28;20216;-86
2022/08/18 06:06:19;;;;;;;5.00;4.25;;;24.30;87.50;;;;;;5053584;28;20217;-86
2022/08/18 06:09:06;;;;;;;5.82;4.75;;;24.30;87.60;;;;;;5053253;28;20216;-86
2022/08/18 06:11:36;;;;;;;6.90;4.43;;;24.30;87.60;;;;;;5053336;28;20309;-86
2022/08/18 06:14:04;;;;;;;4.60;4.20;;;24.30;87.50;;;;;;5053426;28;20208;-86
2022/08/18 06:16:47;;;;;;;5.40;4.53;;;24.40;87.70;;;;;;5056223;28;20288;-85
2022/08/18 06:19:33;;;;;;;5.43;4.72;;;24.50;87.90;;;;;;5057286;28;20243;-86
2022/08/18 06:22:14;;;;;;;4.75;3.80;;;24.60;87.70;;;;;;5052488;28;20218;-86
2022/08/18 06:24:50;;;;;;;4.50;4.10;;;24.70;87.50;;;;;;5052962;28;20210;-85
2022/08/18 06:27:29;;;;;;;4.93;4.53;;;24.90;87.10;;;;;;5053062;28;20260;-86
2022/08/18 06:30:07;;;;;;;6.20;3.97;;;24.90;86.10;;;;;;5052903;28;20205;-85
2022/08/18 06:32:51;;;;;;;4.45;4.05;;;25.10;85.80;;;;;;5052705;28;20237;-86
2022/08/18 06:35:36;;;;;;;8.65;4.45;;;25.20;85.80;;;;;;5052763;28;20237;-86
2022/08/18 06:41:11;;;;;;;4.53;4.13;;;25.40;85.30;;;;;;5052687;28;20225;-86
2022/08/18 06:44:04;;;;;;;4.40;4.10;;;25.40;85.10;;;;;;5053063;28;20206;-86
2022/08/18 06:46:45;;;;;;;4.57;4.18;;;25.60;84.70;;;;;;5052970;28;20210;-86
2022/08/18 06:49:39;;;;;;;5.63;4.15;;;25.70;84.40;;;;;;5052036;28;20293;-86
2022/08/18 06:52:22;;;;;;;4.50;4.05;;;25.70;84.00;;;;;;5052965;28;20233;-86
2022/08/18 06:54:51;;;;;;;4.47;3.90;;;25.70;84.10;;;;;;5052874;28;20289;-87
2022/08/18 06:57:26;;;;;;;5.72;3.95;;;25.80;84.00;;;;;;5052363;28;20265;-85
2022/08/18 07:00:00;;;;;;;4.72;3.83;;;25.90;83.70;;;;;;5052507;28;20206;-85
2022/08/18 07:02:46;;;;;;;7.35;4.57;;;25.90;83.80;;;;;;5052329;28;20222;-86
2022/08/18 07:05:26;;;;;;;4.38;3.95;;;25.90;83.70;;;;;;5052623;28;20198;-84
2022/08/18 07:08:11;;;;;;;4.75;3.80;;;26.00;83.50;;;;;;5052570;28;20209;-85
2022/08/18 07:10:41;;;;;;;4.35;3.97;;;26.10;83.20;;;;;;5052367;28;20205;-84
2022/08/18 07:13:24;;;;;;;4.70;4.32;;;26.30;82.80;;;;;;5052789;28;20292;-85
2022/08/18 07:15:55;;;;;;;4.32;3.92;;;26.20;83.00;;;;;;5052330;28;20205;-85
2022/08/18 07:18:27;;;;;;;3.97;3.63;;;26.30;83.00;;;;;;5052215;28;20210;-85
2022/08/18 07:20:57;;;;;;;7.97;3.50;;;26.40;83.10;;;;;;5052458;28;20225;-86
2022/08/18 07:23:30;;;;;;;5.10;3.90;;;26.60;82.60;;;;;;5052563;28;20297;-85
2022/08/18 07:26:03;;;;;;;6.43;3.95;;;26.80;82.10;;;;;;5052780;28;20213;-85
2022/08/18 07:28:36;;;;;;;3.72;3.22;;;27.00;81.80;;;;;;5052100;28;20265;-85
2022/08/18 07:31:16;;;;;;;5.68;4.20;;;27.20;81.60;;;;;;5052328;28;20234;-85
2022/08/18 07:33:51;;;;;;;4.25;3.85;;;27.40;81.30;;;;;;5052911;28;20208;-85
2022/08/18 07:36:23;;;;;;;7.55;3.85;;;27.50;80.50;;;;;;5056210;28;20209;-85
2022/08/18 07:38:56;;;;;;;4.00;3.70;;;27.70;80.30;;;;;;5056148;28;20289;-85
2022/08/18 07:41:29;;;;;;;2.80;2.65;;;27.90;79.60;;;;;;5055790;28;20238;-85
2022/08/18 07:44:11;;;;;;;3.63;3.33;;;27.90;78.80;;;;;;5056263;28;20288;-85
2022/08/18 07:46:50;;;;;;;3.72;3.38;;;27.90;77.90;;;;;;5056010;28;20289;-85
2022/08/18 07:49:22;;;;;;;7.28;4.10;;;27.90;77.80;;;;;;5055774;28;20280;-85
2022/08/18 07:51:56;;;;;;;4.35;3.80;;;28.10;77.30;;;;;;5055641;28;20221;-85
2022/08/18 07:54:48;;;;;;;3.35;3.05;;;28.20;76.90;;;;;;5056079;28;20209;-85
2022/08/18 07:57:26;;;;;;;3.95;3.65;;;28.30;75.80;;;;;;5055748;28;20213;-87
2022/08/18 08:00:05;;;;;;;4.75;3.63;;;28.40;75.80;;;;;;5055619;28;20217;-85
2022/08/18 08:02:57;;;;;;;4.00;3.70;;;28.60;75.40;;;;;;5055202;28;20229;-85
2022/08/18 08:05:39;;;;;;;3.42;3.22;;;28.80;75.20;;;;;;5055639;28;20210;-85
2022/08/18 08:08:19;;;;;;;3.92;3.55;;;29.20;74.90;;;;;;5055946;28;20236;-85
2022/08/18 08:11:13;;;;;;;3.60;3.30;;;29.60;73.30;;;;;;5055394;28;20222;-85
2022/08/18 08:13:54;;;;;;;3.30;3.08;;;30.00;72.30;;;;;;5055338;28;20212;-85
2022/08/18 08:16:35;;;;;;;3.28;2.70;;;30.60;70.50;;;;;;5055636;28;20205;-86
2022/08/18 08:19:15;;;;;;;4.00;3.63;;;31.40;69.00;;;;;;5055273;28;20221;-85
2022/08/18 08:21:50;;;;;;;3.78;3.47;;;31.90;66.40;;;;;;5055438;28;20308;-86
2022/08/18 08:24:27;;;;;;;3.70;3.40;;;32.40;65.10;;;;;;5055655;28;20204;-86
2022/08/18 08:27:02;;;;;;;5.35;3.25;;;33.00;64.30;;;;;;5055702;28;20212;-86
2022/08/18 08:29:45;;;;;;;9.65;3.38;;;33.40;62.30;;;;;;5054988;28;20289;-87
2022/08/18 08:32:21;;;;;;;3.65;3.33;;;33.90;62.10;;;;;;5055182;28;20233;-86
2022/08/18 08:34:54;;;;;;;3.50;2.75;;;34.50;61.10;;;;;;5055263;28;20260;-87
2022/08/18 08:37:30;;;;;;;3.90;3.35;;;35.10;60.70;;;;;;5055064;28;20232;-87
2022/08/18 08:40:02;;;;;;;3.15;2.95;;;35.70;59.80;;;;;;5054988;28;20426;-86
2022/08/18 08:42:39;;;;;;;3.20;3.00;;;36.60;59.00;;;;;;5055098;28;20236;-87
2022/08/18 08:45:12;;;;;;;3.15;2.95;;;37.30;56.50;;;;;;5054308;28;20296;-87
2022/08/18 08:47:45;;;;;;;3.55;3.25;;;37.90;56.60;;;;;;5054768;28;20288;-87
2022/08/18 08:50:19;;;;;;;3.40;2.97;;;38.50;54.20;;;;;;5054647;28;20213;-86
2022/08/18 08:52:52;;;;;;;3.17;2.90;;;38.80;54.00;;;;;;5054833;28;20204;-87
2022/08/18 08:55:27;;;;;;;3.53;3.22;;;39.20;53.20;;;;;;5054914;28;20213;-87
2022/08/18 08:58:01;;;;;;;3.72;2.95;;;39.00;51.80;;;;;;5055104;28;20209;-88
2022/08/18 09:00:31;;;;;;;3.85;3.03;;;39.20;52.80;;;;;;5054749;28;20268;-87
2022/08/18 09:03:16;;;;;;;3.65;3.28;;;39.30;51.80;;;;;;5054403;28;20235;-87
2022/08/18 09:05:51;;;;;;;4.70;3.15;;;39.60;50.80;;;;;;5054328;28;20212;-87
2022/08/18 09:08:50;;;;;;;4.55;3.60;;;39.20;53.00;;;;;;5054266;28;20282;-88
2022/08/18 09:11:32;;;;;;;4.93;3.67;;;39.80;52.00;;;;;;5054335;28;20233;-87
2022/08/18 09:14:33;;;;;;;3.22;2.95;;;39.90;51.40;;;;;;5054247;28;20207;-87
2022/08/18 09:17:16;;;;;;;6.43;3.67;;;40.20;51.30;;;;;;5052607;28;20284;-87
2022/08/18 09:20:01;;;;;;;3.20;2.75;;;40.40;49.80;;;;;;5054101;28;20215;-87
2022/08/18 09:22:38;;;;;;;4.10;3.80;;;40.30;50.10;;;;;;5054408;28;20229;-87
2022/08/18 09:25:10;;;;;;;4.32;3.88;;;39.70;50.60;;;;;;5054445;28;20292;-87
2022/08/18 09:27:45;;;;;;;4.28;3.60;;;39.10;51.50;;;;;;5053905;28;20215;-87
2022/08/18 09:30:41;;;;;;;3.55;3.25;;;38.50;52.30;;;;;;5053749;28;20208;-87
2022/08/18 09:33:20;;;;;;;4.80;3.97;;;38.70;51.90;;;;;;5054232;28;20201;-87
2022/08/18 09:36:24;;;;;;;3.92;3.55;;;38.80;51.70;;;;;;5054348;28;20266;-87
2022/08/18 09:42:12;;;;;;;3.92;3.60;;;37.40;53.40;;;;;;5053405;28;20221;-87
2022/08/18 09:45:08;;;;;;;13.05;4.72;;;37.00;53.80;;;;;;5053723;28;20258;-87
2022/08/18 09:48:07;;;;;;;3.47;3.28;;;36.90;53.90;;;;;;5053568;28;20208;-87
2022/08/18 09:51:00;;;;;;;3.70;3.40;;;37.20;53.70;;;;;;5053597;28;20201;-86
2022/08/18 09:53:36;;;;;;;6.32;4.07;;;37.60;52.80;;;;;;5053681;28;20225;-87
2022/08/18 09:56:08;;;;;;;4.55;3.97;;;38.00;52.90;;;;;;5053726;28;20205;-87
2022/08/18 09:58:57;;;;;;;3.85;3.55;;;38.20;53.60;;;;;;5059733;28;20264;-87
2022/08/18 10:01:36;;;;;;;6.13;4.35;;;38.60;51.90;;;;;;5061237;28;20248;-87
2022/08/18 10:04:28;;;;;;;14.18;4.18;;;38.90;52.40;;;;;;5053840;28;20216;-87
2022/08/18 10:07:29;;;;;;;5.20;4.13;;;39.00;53.00;;;;;;5053584;28;20258;-87
2022/08/18 10:10:24;;;;;;;3.80;3.55;;;39.10;51.30;;;;;;5053080;28;20201;-87
2022/08/18 10:13:21;;;;;;;4.88;3.70;;;39.10;51.60;;;;;;5053148;28;20205;-87
2022/08/18 10:16:04;;;;;;;4.85;4.35;;;39.00;52.30;;;;;;5053090;28;20243;-86
2022/08/18 10:18:56;;;;;;;3.85;3.55;;;38.70;52.30;;;;;;5053331;28;20219;-87
2022/08/18 10:21:27;;;;;;;7.40;4.57;;;38.60;52.60;;;;;;5053316;28;20312;-88
2022/08/18 10:24:13;;;;;;;5.55;4.55;;;38.50;52.40;;;;;;5052935;28;20312;-87
2022/08/18 10:27:02;;;;;;;7.18;4.63;;;38.30;53.70;;;;;;5053495;28;20215;-87
2022/08/18 10:29:59;;;;;;;6.75;4.22;;;38.40;53.30;;;;;;5053120;28;20228;-87
2022/08/18 10:32:44;;;;;;;4.82;4.28;;;38.40;52.80;;;;;;5028971;28;20308;-87
2022/08/18 10:35:56;;;;;;;4.53;4.13;;;38.60;53.50;;;;;;5053081;28;20216;-87
2022/08/18 10:38:38;;;;;;;5.57;4.28;;;38.60;51.80;;;;;;5052493;28;20234;-87
2022/08/18 10:41:13;;;;;;;6.78;4.47;;;38.80;52.70;;;;;;5052689;28;20252;-87
2022/08/18 10:43:45;;;;;;;9.32;5.18;;;38.90;52.50;;;;;;5052888;28;20224;-87
2022/08/18 10:46:28;;;;;;;5.43;4.22;;;39.20;52.40;;;;;;5052794;28;20212;-87
2022/08/18 10:49:20;;;;;;;7.47;4.22;;;39.30;51.10;;;;;;5052379;28;20208;-88
2022/08/18 10:52:21;;;;;;;4.30;3.90;;;39.50;51.70;;;;;;5053079;28;20259;-87
2022/08/18 10:55:05;;;;;;;3.92;3.63;;;39.80;51.80;;;;;;5036695;28;20236;-87
2022/08/18 10:58:01;;;;;;;4.68;3.95;;;40.30;51.80;;;;;;5052692;28;20213;-87
2022/08/18 11:00:51;;;;;;;3.63;3.33;;;40.40;50.60;;;;;;5052438;28;20221;-87
2022/08/18 11:03:36;;;;;;;5.40;3.92;;;40.00;50.90;;;;;;5052380;28;20221;-87
2022/08/18 11:06:25;;;;;;;4.05;3.75;;;40.20;51.80;;;;;;5052575;28;20208;-88
2022/08/18 11:08:57;;;;;;;4.25;3.85;;;40.40;51.10;;;;;;5053562;28;20235;-87
2022/08/18 11:11:31;;;;;;;3.83;3.53;;;40.10;50.60;;;;;;5056519;28;20316;-87
2022/08/18 11:15:00;;;;;;;4.35;3.95;;;40.10;51.70;;;;;;5056407;28;20207;-87
2022/08/18 11:18:01;;;;;;;21.73;3.85;;;40.40;51.00;;;;;;5056812;28;20208;-88
2022/08/18 11:20:33;;;;;;;4.78;4.35;;;40.80;50.00;;;;;;5056247;28;20208;-87
2022/08/18 11:23:03;;;;;;;4.07;3.67;;;41.00;51.20;;;;;;5056483;28;20217;-87
2022/08/18 11:25:34;;;;;;;4.25;3.47;;;41.40;50.50;;;;;;5056681;28;20244;-87
2022/08/18 11:28:14;;;;;;;4.10;3.75;;;41.60;49.30;;;;;;5056690;28;20204;-87
2022/08/18 11:30:47;;;;;;;3.38;3.17;;;41.40;50.00;;;;;;5056090;28;20224;-87
2022/08/18 11:33:16;;;;;;;3.75;3.45;;;41.60;49.40;;;;;;5056089;28;20203;-87
2022/08/18 11:35:57;;;;;;;6.63;3.58;;;41.60;48.80;;;;;;5056611;28;20259;-88
2022/08/18 11:38:27;;;;;;;3.60;3.30;;;41.60;48.40;;;;;;5056211;28;20200;-88
2022/08/18 11:41:17;;;;;;;6.20;3.67;;;41.70;48.30;;;;;;5056031;28;20225;-87
2022/08/18 11:43:47;;;;;;;3.47;3.17;;;42.00;47.90;;;;;;5055883;28;20229;-88
2022/08/18 11:46:26;;;;;;;3.92;3.40;;;41.70;46.60;;;;;;5056061;28;20209;-87
2022/08/18 11:48:59;;;;;;;4.30;2.90;;;42.10;47.30;;;;;;5055601;28;20235;-88
2022/08/18 11:51:32;;;;;;;6.18;3.53;;;42.10;45.90;;;;;;5056459;28;20255;-88
2022/08/18 11:54:03;;;;;;;8.05;3.08;;;42.00;46.30;;;;;;5056235;28;20194;-88
2022/08/18 11:56:34;;;;;;;4.00;3.60;;;42.00;46.00;;;;;;5055862;28;20271;-87
2022/08/18 11:59:07;;;;;;;7.45;3.15;;;42.00;46.70;;;;;;5055721;28;20209;-87
2022/08/18 12:01:48;;;;;;;2.85;2.65;;;42.00;45.50;;;;;;5055725;28;20252;-88
2022/08/18 12:04:38;;;;;;;3.42;3.10;;;41.60;45.10;;;;;;5055374;28;20233;-87
2022/08/18 12:07:13;;;;;;;3.88;3.00;;;41.80;45.60;;;;;;5055640;28;20248;-88
2022/08/18 12:09:49;;;;;;;3.53;3.22;;;41.30;44.70;;;;;;5055218;28;20216;-87
2022/08/18 12:12:45;;;;;;;4.18;3.13;;;41.10;44.50;;;;;;5055286;28;20221;-88
2022/08/18 12:15:29;;;;;;;4.65;3.10;;;41.20;44.60;;;;;;5055149;28;20215;-87
2022/08/18 12:18:18;;;;;;;3.85;2.85;;;41.30;45.10;;;;;;5055361;28;20197;-87
2022/08/18 12:20:57;;;;;;;3.15;2.83;;;40.80;44.10;;;;;;5054089;28;20244;-88
2022/08/18 12:23:27;;;;;;;3.47;3.00;;;40.30;45.20;;;;;;5055629;28;20225;-87
2022/08/18 12:26:16;;;;;;;2.85;2.65;;;40.10;45.10;;;;;;5054915;28;20205;-88
2022/08/18 12:29:04;;;;;;;3.65;3.35;;;40.00;45.10;;;;;;5055008;28;20201;-87
2022/08/18 12:31:38;;;;;;;3.65;3.13;;;40.30;45.20;;;;;;5055054;28;20232;-88
2022/08/18 12:34:26;;;;;;;4.60;2.92;;;40.60;45.20;;;;;;5055157;28;20211;-88
2022/08/18 12:36:59;;;;;;;4.53;2.80;;;40.50;45.00;;;;;;5054971;28;20197;-87
2022/08/18 12:39:30;;;;;;;3.17;2.85;;;40.20;44.80;;;;;;5055095;28;20212;-88
2022/08/18 12:41:59;;;;;;;3.42;2.78;;;40.20;44.80;;;;;;5055198;28;20227;-88
2022/08/18 12:44:28;;;;;;;3.25;2.88;;;40.00;45.30;;;;;;5054785;28;20309;-88
2022/08/18 12:46:57;;;;;;;4.00;2.65;;;39.80;44.90;;;;;;5054861;28;20258;-88
2022/08/18 12:49:26;;;;;;;3.50;3.13;;;39.80;45.10;;;;;;5055029;28;20202;-87
2022/08/18 12:51:56;;;;;;;6.35;3.33;;;39.60;45.30;;;;;;5054697;28;20225;-88
2022/08/18 12:54:25;;;;;;;8.63;3.15;;;39.80;45.00;;;;;;5054520;28;20224;-88
2022/08/18 12:56:56;;;;;;;3.45;2.88;;;40.10;46.00;;;;;;5054876;28;20225;-88
2022/08/18 12:59:25;;;;;;;2.97;2.67;;;40.20;46.00;;;;;;5054397;28;20228;-87
2022/08/18 13:02:00;;;;;;;6.60;3.03;;;40.50;46.40;;;;;;5054830;28;20278;-87
2022/08/18 13:04:29;;;;;;;4.13;2.85;;;40.20;44.40;;;;;;5054411;28;20229;-88
2022/08/18 13:07:02;;;;;;;4.60;2.90;;;39.80;45.50;;;;;;5054673;28;20275;-87
2022/08/18 13:09:35;;;;;;;2.70;2.50;;;39.80;45.70;;;;;;5054518;28;20212;-88
2022/08/18 13:12:24;;;;;;;3.03;2.83;;;39.80;45.40;;;;;;5054605;28;20233;-88
2022/08/18 13:14:54;;;;;;;4.30;2.70;;;39.50;45.10;;;;;;5054200;28;20232;-88
2022/08/18 13:17:25;;;;;;;3.03;2.72;;;39.60;46.20;;;;;;5054587;28;20205;-88
2022/08/18 13:20:00;;;;;;;3.00;2.50;;;39.70;46.00;;;;;;5054475;28;20205;-89
2022/08/18 13:22:28;;;;;;;2.83;2.60;;;39.50;46.00;;;;;;5054135;28;20249;-88
2022/08/18 13:25:01;;;;;;;11.23;2.97;;;39.30;45.90;;;;;;5054141;28;20229;-87
2022/08/18 13:27:32;;;;;;;3.05;2.75;;;39.00;45.90;;;;;;5054314;28;20215;-88
2022/08/18 13:30:08;;;;;;;3.17;2.60;;;38.50;45.50;;;;;;5054049;28;20205;-88
2022/08/18 13:32:56;;;;;;;3.28;2.50;;;38.40;45.80;;;;;;5053734;28;20205;-88
2022/08/18 13:35:26;;;;;;;2.97;2.50;;;38.00;46.40;;;;;;5053870;28;20276;-88
2022/08/18 13:38:06;;;;;;;3.00;2.47;;;37.80;46.70;;;;;;5054187;28;20209;-87
2022/08/18 13:40:44;;;;;;;3.17;2.60;;;37.80;47.00;;;;;;5053798;28;20225;-88
2022/08/18 13:43:16;;;;;;;3.20;2.55;;;38.00;46.80;;;;;;5053492;28;20205;-87
2022/08/18 13:45:48;;;;;;;5.80;3.28;;;37.90;46.60;;;;;;5053464;28;20240;-88
2022/08/18 13:48:24;;;;;;;2.40;2.20;;;37.30;47.10;;;;;;5053755;28;20217;-88